sensor_id;sensor_type;location;lat;lon;timestamp;P1;durP1;ratioP1;P2;durP2;ratioP2
21162;SDS011;10739;52.198;20.908;2023-03-14T00:03:40;11.77;;;6.15;;
21162;SDS011;10739;52.198;20.908;2023-03-14T00:06:06;11.93;;;6.60;;
21162;SDS011;10739;52.198;20.908;2023-03-14T00:08:33;10.90;;;6.38;;
21162;SDS011;10739;52.198;20.908;2023-03-14T00:11:07;14.25;;;6.20;;
21162;SDS011;10739;52.198;20.908;2023-03-14T00:13:36;14.48;;;6.40;;
21162;SDS011;10739;52.198;20.908;2023-03-14T00:16:03;12.88;;;6.70;;
21162;SDS011;10739;52.198;20.908;2023-03-14T00:18:33;13.05;;;6.45;;
21162;SDS011;10739;52.198;20.908;2023-03-14T00:21:00;12.35;;;6.65;;
21162;SDS011;10739;52.198;20.908;2023-03-14T00:23:29;19.92;;;6.35;;
21162;SDS011;10739;52.198;20.908;2023-03-14T00:26:05;12.75;;;6.63;;
21162;SDS011;10739;52.198;20.908;2023-03-14T00:28:35;12.25;;;6.40;;
21162;SDS011;10739;52.198;20.908;2023-03-14T00:31:02;11.50;;;6.40;;
21162;SDS011;10739;52.198;20.908;2023-03-14T00:33:30;13.10;;;6.88;;
21162;SDS011;10739;52.198;20.908;2023-03-14T00:35:57;15.57;;;5.95;;
21162;SDS011;10739;52.198;20.908;2023-03-14T00:38:31;10.73;;;6.50;;
21162;SDS011;10739;52.198;20.908;2023-03-14T00:40:58;13.07;;;6.35;;
21162;SDS011;10739;52.198;20.908;2023-03-14T00:43:28;16.88;;;6.68;;
21162;SDS011;10739;52.198;20.908;2023-03-14T00:45:55;14.00;;;6.68;;
21162;SDS011;10739;52.198;20.908;2023-03-14T00:48:22;13.32;;;6.20;;
21162;SDS011;10739;52.198;20.908;2023-03-14T00:50:48;12.30;;;6.30;;
21162;SDS011;10739;52.198;20.908;2023-03-14T00:53:15;17.13;;;7.65;;
21162;SDS011;10739;52.198;20.908;2023-03-14T00:55:42;14.30;;;7.68;;
21162;SDS011;10739;52.198;20.908;2023-03-14T00:58:10;18.63;;;7.03;;
21162;SDS011;10739;52.198;20.908;2023-03-14T01:00:38;11.20;;;6.82;;
21162;SDS011;10739;52.198;20.908;2023-03-14T01:03:05;12.85;;;7.18;;
21162;SDS011;10739;52.198;20.908;2023-03-14T01:05:33;13.32;;;6.43;;
21162;SDS011;10739;52.198;20.908;2023-03-14T01:07:59;13.30;;;7.28;;
21162;SDS011;10739;52.198;20.908;2023-03-14T01:10:26;11.85;;;6.75;;
21162;SDS011;10739;52.198;20.908;2023-03-14T01:12:52;12.35;;;6.75;;
21162;SDS011;10739;52.198;20.908;2023-03-14T01:15:19;10.93;;;6.05;;
21162;SDS011;10739;52.198;20.908;2023-03-14T01:17:45;11.65;;;6.82;;
21162;SDS011;10739;52.198;20.908;2023-03-14T01:20:13;14.63;;;6.75;;
21162;SDS011;10739;52.198;20.908;2023-03-14T01:22:41;13.52;;;7.60;;
21162;SDS011;10739;52.198;20.908;2023-03-14T01:25:09;14.93;;;7.30;;
21162;SDS011;10739;52.198;20.908;2023-03-14T01:27:39;11.10;;;6.55;;
21162;SDS011;10739;52.198;20.908;2023-03-14T01:30:06;12.25;;;7.03;;
21162;SDS011;10739;52.198;20.908;2023-03-14T01:32:35;13.73;;;6.88;;
21162;SDS011;10739;52.198;20.908;2023-03-14T01:35:01;13.52;;;6.45;;
21162;SDS011;10739;52.198;20.908;2023-03-14T01:37:28;12.20;;;7.32;;
21162;SDS011;10739;52.198;20.908;2023-03-14T01:39:55;12.40;;;6.97;;
21162;SDS011;10739;52.198;20.908;2023-03-14T01:42:21;15.23;;;7.57;;
21162;SDS011;10739;52.198;20.908;2023-03-14T01:44:56;12.25;;;7.22;;
21162;SDS011;10739;52.198;20.908;2023-03-14T01:47:25;15.52;;;7.00;;
21162;SDS011;10739;52.198;20.908;2023-03-14T01:52:33;15.60;;;6.70;;
21162;SDS011;10739;52.198;20.908;2023-03-14T01:55:12;12.20;;;6.25;;
21162;SDS011;10739;52.198;20.908;2023-03-14T01:57:46;11.75;;;6.53;;
21162;SDS011;10739;52.198;20.908;2023-03-14T02:00:24;11.25;;;6.15;;
21162;SDS011;10739;52.198;20.908;2023-03-14T02:02:55;13.20;;;6.82;;
21162;SDS011;10739;52.198;20.908;2023-03-14T02:05:32;12.52;;;6.85;;
21162;SDS011;10739;52.198;20.908;2023-03-14T02:08:04;12.15;;;6.95;;
21162;SDS011;10739;52.198;20.908;2023-03-14T02:10:37;11.68;;;6.43;;
21162;SDS011;10739;52.198;20.908;2023-03-14T02:13:08;11.63;;;6.45;;
21162;SDS011;10739;52.198;20.908;2023-03-14T02:15:36;13.75;;;7.20;;
21162;SDS011;10739;52.198;20.908;2023-03-14T02:18:04;11.63;;;6.57;;
21162;SDS011;10739;52.198;20.908;2023-03-14T02:23:58;10.65;;;6.20;;
21162;SDS011;10739;52.198;20.908;2023-03-14T02:26:43;11.40;;;6.28;;
21162;SDS011;10739;52.198;20.908;2023-03-14T02:29:30;11.77;;;6.50;;
21162;SDS011;10739;52.198;20.908;2023-03-14T02:32:01;10.35;;;6.18;;
21162;SDS011;10739;52.198;20.908;2023-03-14T02:34:28;15.15;;;6.50;;
21162;SDS011;10739;52.198;20.908;2023-03-14T02:36:57;10.23;;;6.20;;
21162;SDS011;10739;52.198;20.908;2023-03-14T02:39:27;11.82;;;6.15;;
21162;SDS011;10739;52.198;20.908;2023-03-14T02:42:07;11.13;;;5.95;;
21162;SDS011;10739;52.198;20.908;2023-03-14T02:44:34;10.23;;;6.20;;
21162;SDS011;10739;52.198;20.908;2023-03-14T02:47:01;13.60;;;5.88;;
21162;SDS011;10739;52.198;20.908;2023-03-14T02:49:29;10.27;;;5.97;;
21162;SDS011;10739;52.198;20.908;2023-03-14T02:55:44;11.02;;;5.90;;
21162;SDS011;10739;52.198;20.908;2023-03-14T02:58:12;11.20;;;6.00;;
21162;SDS011;10739;52.198;20.908;2023-03-14T03:00:38;11.02;;;5.85;;
21162;SDS011;10739;52.198;20.908;2023-03-14T03:03:04;12.43;;;6.40;;
21162;SDS011;10739;52.198;20.908;2023-03-14T03:05:31;11.95;;;5.97;;
21162;SDS011;10739;52.198;20.908;2023-03-14T03:07:58;11.25;;;5.93;;
21162;SDS011;10739;52.198;20.908;2023-03-14T03:10:24;11.82;;;5.75;;
21162;SDS011;10739;52.198;20.908;2023-03-14T03:12:51;11.88;;;5.72;;
21162;SDS011;10739;52.198;20.908;2023-03-14T03:15:18;8.45;;;5.22;;
21162;SDS011;10739;52.198;20.908;2023-03-14T03:17:44;11.30;;;5.28;;
21162;SDS011;10739;52.198;20.908;2023-03-14T03:20:10;11.00;;;5.40;;
21162;SDS011;10739;52.198;20.908;2023-03-14T03:22:37;8.35;;;5.32;;
21162;SDS011;10739;52.198;20.908;2023-03-14T03:25:05;11.60;;;5.65;;
21162;SDS011;10739;52.198;20.908;2023-03-14T03:27:34;13.23;;;5.85;;
21162;SDS011;10739;52.198;20.908;2023-03-14T03:30:03;11.63;;;5.38;;
21162;SDS011;10739;52.198;20.908;2023-03-14T03:32:31;11.98;;;5.28;;
21162;SDS011;10739;52.198;20.908;2023-03-14T03:34:58;11.27;;;4.82;;
21162;SDS011;10739;52.198;20.908;2023-03-14T03:37:24;10.27;;;5.05;;
21162;SDS011;10739;52.198;20.908;2023-03-14T03:39:51;11.77;;;5.82;;
21162;SDS011;10739;52.198;20.908;2023-03-14T03:42:17;8.65;;;5.10;;
21162;SDS011;10739;52.198;20.908;2023-03-14T03:44:44;11.40;;;5.30;;
21162;SDS011;10739;52.198;20.908;2023-03-14T03:47:10;10.45;;;5.22;;
21162;SDS011;10739;52.198;20.908;2023-03-14T03:49:37;7.75;;;4.97;;
21162;SDS011;10739;52.198;20.908;2023-03-14T03:52:03;9.77;;;4.90;;
21162;SDS011;10739;52.198;20.908;2023-03-14T03:54:29;9.05;;;4.55;;
21162;SDS011;10739;52.198;20.908;2023-03-14T03:56:56;7.65;;;4.43;;
21162;SDS011;10739;52.198;20.908;2023-03-14T03:59:22;9.70;;;4.88;;
21162;SDS011;10739;52.198;20.908;2023-03-14T04:01:48;11.63;;;4.80;;
21162;SDS011;10739;52.198;20.908;2023-03-14T04:04:15;11.55;;;5.03;;
21162;SDS011;10739;52.198;20.908;2023-03-14T04:06:41;12.20;;;5.28;;
21162;SDS011;10739;52.198;20.908;2023-03-14T04:09:11;9.48;;;4.72;;
21162;SDS011;10739;52.198;20.908;2023-03-14T04:11:37;7.55;;;4.82;;
21162;SDS011;10739;52.198;20.908;2023-03-14T04:14:05;7.32;;;4.50;;
21162;SDS011;10739;52.198;20.908;2023-03-14T04:16:31;8.98;;;4.40;;
21162;SDS011;10739;52.198;20.908;2023-03-14T04:18:58;7.20;;;4.65;;
21162;SDS011;10739;52.198;20.908;2023-03-14T04:21:24;10.75;;;4.55;;
21162;SDS011;10739;52.198;20.908;2023-03-14T04:23:50;9.50;;;4.70;;
21162;SDS011;10739;52.198;20.908;2023-03-14T04:26:16;9.52;;;4.40;;
21162;SDS011;10739;52.198;20.908;2023-03-14T04:28:43;12.73;;;4.75;;
21162;SDS011;10739;52.198;20.908;2023-03-14T04:31:10;9.85;;;5.03;;
21162;SDS011;10739;52.198;20.908;2023-03-14T04:33:44;6.72;;;3.97;;
21162;SDS011;10739;52.198;20.908;2023-03-14T04:36:11;10.48;;;4.40;;
21162;SDS011;10739;52.198;20.908;2023-03-14T04:38:38;11.75;;;4.97;;
21162;SDS011;10739;52.198;20.908;2023-03-14T04:41:05;8.60;;;4.60;;
21162;SDS011;10739;52.198;20.908;2023-03-14T04:43:32;9.98;;;4.80;;
21162;SDS011;10739;52.198;20.908;2023-03-14T04:45:59;8.60;;;4.28;;
21162;SDS011;10739;52.198;20.908;2023-03-14T04:48:26;9.23;;;5.20;;
21162;SDS011;10739;52.198;20.908;2023-03-14T04:50:52;8.63;;;4.75;;
21162;SDS011;10739;52.198;20.908;2023-03-14T04:53:19;16.58;;;4.65;;
21162;SDS011;10739;52.198;20.908;2023-03-14T04:55:49;7.43;;;4.07;;
21162;SDS011;10739;52.198;20.908;2023-03-14T04:58:19;7.75;;;4.28;;
21162;SDS011;10739;52.198;20.908;2023-03-14T05:00:46;7.82;;;4.68;;
21162;SDS011;10739;52.198;20.908;2023-03-14T05:03:14;7.40;;;4.53;;
21162;SDS011;10739;52.198;20.908;2023-03-14T05:05:41;6.00;;;4.15;;
21162;SDS011;10739;52.198;20.908;2023-03-14T05:08:08;8.65;;;3.97;;
21162;SDS011;10739;52.198;20.908;2023-03-14T05:10:35;7.93;;;4.47;;
21162;SDS011;10739;52.198;20.908;2023-03-14T05:13:02;7.45;;;4.88;;
21162;SDS011;10739;52.198;20.908;2023-03-14T05:15:28;6.53;;;4.03;;
21162;SDS011;10739;52.198;20.908;2023-03-14T05:17:54;11.63;;;5.18;;
21162;SDS011;10739;52.198;20.908;2023-03-14T05:20:21;7.65;;;4.38;;
21162;SDS011;10739;52.198;20.908;2023-03-14T05:22:47;7.95;;;4.40;;
21162;SDS011;10739;52.198;20.908;2023-03-14T05:25:13;7.47;;;4.38;;
21162;SDS011;10739;52.198;20.908;2023-03-14T05:27:40;13.38;;;5.05;;
21162;SDS011;10739;52.198;20.908;2023-03-14T05:30:06;12.48;;;5.20;;
21162;SDS011;10739;52.198;20.908;2023-03-14T05:32:34;10.80;;;5.22;;
21162;SDS011;10739;52.198;20.908;2023-03-14T05:35:00;7.55;;;4.72;;
21162;SDS011;10739;52.198;20.908;2023-03-14T05:37:26;8.13;;;5.30;;
21162;SDS011;10739;52.198;20.908;2023-03-14T05:39:53;10.57;;;4.95;;
21162;SDS011;10739;52.198;20.908;2023-03-14T05:42:19;7.25;;;4.75;;
21162;SDS011;10739;52.198;20.908;2023-03-14T05:44:46;7.65;;;4.75;;
21162;SDS011;10739;52.198;20.908;2023-03-14T05:47:12;8.25;;;4.88;;
21162;SDS011;10739;52.198;20.908;2023-03-14T05:49:38;7.72;;;4.68;;
21162;SDS011;10739;52.198;20.908;2023-03-14T05:52:05;7.53;;;4.40;;
21162;SDS011;10739;52.198;20.908;2023-03-14T05:54:31;8.23;;;4.60;;
21162;SDS011;10739;52.198;20.908;2023-03-14T05:56:57;8.25;;;4.47;;
21162;SDS011;10739;52.198;20.908;2023-03-14T05:59:23;6.10;;;4.28;;
21162;SDS011;10739;52.198;20.908;2023-03-14T06:01:50;15.93;;;5.03;;
21162;SDS011;10739;52.198;20.908;2023-03-14T06:04:16;9.43;;;5.13;;
21162;SDS011;10739;52.198;20.908;2023-03-14T06:06:42;9.48;;;4.78;;
21162;SDS011;10739;52.198;20.908;2023-03-14T06:09:09;11.90;;;5.20;;
21162;SDS011;10739;52.198;20.908;2023-03-14T06:11:35;11.07;;;5.47;;
21162;SDS011;10739;52.198;20.908;2023-03-14T06:14:01;10.20;;;4.82;;
21162;SDS011;10739;52.198;20.908;2023-03-14T06:16:28;11.45;;;4.78;;
21162;SDS011;10739;52.198;20.908;2023-03-14T06:18:54;15.95;;;5.05;;
21162;SDS011;10739;52.198;20.908;2023-03-14T06:21:20;8.80;;;4.60;;
21162;SDS011;10739;52.198;20.908;2023-03-14T06:23:47;11.05;;;4.78;;
21162;SDS011;10739;52.198;20.908;2023-03-14T06:26:13;9.23;;;4.97;;
21162;SDS011;10739;52.198;20.908;2023-03-14T06:28:39;11.27;;;5.03;;
21162;SDS011;10739;52.198;20.908;2023-03-14T06:31:06;6.85;;;4.35;;
21162;SDS011;10739;52.198;20.908;2023-03-14T06:33:32;8.30;;;4.57;;
21162;SDS011;10739;52.198;20.908;2023-03-14T06:35:58;10.52;;;4.95;;
21162;SDS011;10739;52.198;20.908;2023-03-14T06:38:24;11.13;;;4.75;;
21162;SDS011;10739;52.198;20.908;2023-03-14T06:40:51;8.68;;;4.43;;
21162;SDS011;10739;52.198;20.908;2023-03-14T06:43:23;8.73;;;4.85;;
21162;SDS011;10739;52.198;20.908;2023-03-14T06:45:50;13.18;;;5.53;;
21162;SDS011;10739;52.198;20.908;2023-03-14T06:48:17;9.45;;;4.50;;
21162;SDS011;10739;52.198;20.908;2023-03-14T06:50:44;8.52;;;4.35;;
21162;SDS011;10739;52.198;20.908;2023-03-14T06:53:11;11.45;;;5.47;;
21162;SDS011;10739;52.198;20.908;2023-03-14T06:55:38;10.13;;;5.45;;
21162;SDS011;10739;52.198;20.908;2023-03-14T06:58:04;11.40;;;5.63;;
21162;SDS011;10739;52.198;20.908;2023-03-14T07:00:33;9.05;;;5.40;;
21162;SDS011;10739;52.198;20.908;2023-03-14T07:02:59;11.20;;;5.30;;
21162;SDS011;10739;52.198;20.908;2023-03-14T07:05:26;10.00;;;5.32;;
21162;SDS011;10739;52.198;20.908;2023-03-14T07:07:53;11.40;;;5.03;;
21162;SDS011;10739;52.198;20.908;2023-03-14T07:10:19;7.05;;;4.28;;
21162;SDS011;10739;52.198;20.908;2023-03-14T07:12:46;11.52;;;4.28;;
21162;SDS011;10739;52.198;20.908;2023-03-14T07:15:12;10.95;;;4.60;;
21162;SDS011;10739;52.198;20.908;2023-03-14T07:17:38;7.32;;;4.25;;
21162;SDS011;10739;52.198;20.908;2023-03-14T07:20:05;7.57;;;4.50;;
21162;SDS011;10739;52.198;20.908;2023-03-14T07:22:34;9.80;;;4.63;;
21162;SDS011;10739;52.198;20.908;2023-03-14T07:25:02;9.48;;;4.35;;
21162;SDS011;10739;52.198;20.908;2023-03-14T07:27:29;9.57;;;4.78;;
21162;SDS011;10739;52.198;20.908;2023-03-14T07:29:55;9.82;;;5.07;;
21162;SDS011;10739;52.198;20.908;2023-03-14T07:32:21;9.60;;;4.47;;
21162;SDS011;10739;52.198;20.908;2023-03-14T07:34:48;9.68;;;4.68;;
21162;SDS011;10739;52.198;20.908;2023-03-14T07:37:14;12.52;;;4.50;;
21162;SDS011;10739;52.198;20.908;2023-03-14T07:39:40;10.65;;;4.50;;
21162;SDS011;10739;52.198;20.908;2023-03-14T07:42:06;8.57;;;4.95;;
21162;SDS011;10739;52.198;20.908;2023-03-14T07:44:33;5.57;;;3.97;;
21162;SDS011;10739;52.198;20.908;2023-03-14T07:46:59;16.02;;;4.72;;
21162;SDS011;10739;52.198;20.908;2023-03-14T07:49:25;10.32;;;4.35;;
21162;SDS011;10739;52.198;20.908;2023-03-14T07:51:52;9.57;;;4.70;;
21162;SDS011;10739;52.198;20.908;2023-03-14T07:54:18;7.35;;;3.97;;
21162;SDS011;10739;52.198;20.908;2023-03-14T07:56:54;5.15;;;3.90;;
21162;SDS011;10739;52.198;20.908;2023-03-14T07:59:20;9.60;;;4.07;;
21162;SDS011;10739;52.198;20.908;2023-03-14T08:01:47;8.82;;;4.20;;
21162;SDS011;10739;52.198;20.908;2023-03-14T08:04:13;8.82;;;4.50;;
21162;SDS011;10739;52.198;20.908;2023-03-14T08:06:39;9.20;;;4.53;;
21162;SDS011;10739;52.198;20.908;2023-03-14T08:09:05;10.45;;;3.95;;
21162;SDS011;10739;52.198;20.908;2023-03-14T08:11:32;8.93;;;4.60;;
21162;SDS011;10739;52.198;20.908;2023-03-14T08:13:58;8.75;;;4.00;;
21162;SDS011;10739;52.198;20.908;2023-03-14T08:16:24;5.68;;;3.85;;
21162;SDS011;10739;52.198;20.908;2023-03-14T08:18:51;8.40;;;3.72;;
21162;SDS011;10739;52.198;20.908;2023-03-14T08:21:17;8.13;;;4.57;;
21162;SDS011;10739;52.198;20.908;2023-03-14T08:23:43;7.40;;;3.83;;
21162;SDS011;10739;52.198;20.908;2023-03-14T08:26:09;8.98;;;3.75;;
21162;SDS011;10739;52.198;20.908;2023-03-14T08:28:39;6.38;;;3.90;;
21162;SDS011;10739;52.198;20.908;2023-03-14T08:31:05;8.60;;;4.10;;
21162;SDS011;10739;52.198;20.908;2023-03-14T08:33:31;5.55;;;3.42;;
21162;SDS011;10739;52.198;20.908;2023-03-14T08:35:58;6.38;;;4.18;;
21162;SDS011;10739;52.198;20.908;2023-03-14T08:38:26;6.03;;;3.58;;
21162;SDS011;10739;52.198;20.908;2023-03-14T08:40:57;6.63;;;3.70;;
21162;SDS011;10739;52.198;20.908;2023-03-14T08:43:24;8.13;;;3.78;;
21162;SDS011;10739;52.198;20.908;2023-03-14T08:45:52;9.30;;;3.95;;
21162;SDS011;10739;52.198;20.908;2023-03-14T08:48:19;8.50;;;4.55;;
21162;SDS011;10739;52.198;20.908;2023-03-14T08:50:45;7.78;;;3.90;;
21162;SDS011;10739;52.198;20.908;2023-03-14T08:53:11;7.75;;;3.60;;
21162;SDS011;10739;52.198;20.908;2023-03-14T08:55:37;7.10;;;3.38;;
21162;SDS011;10739;52.198;20.908;2023-03-14T08:58:04;7.97;;;3.65;;
21162;SDS011;10739;52.198;20.908;2023-03-14T09:00:30;7.45;;;3.72;;
21162;SDS011;10739;52.198;20.908;2023-03-14T09:02:56;5.07;;;3.58;;
21162;SDS011;10739;52.198;20.908;2023-03-14T09:05:22;7.50;;;4.10;;
21162;SDS011;10739;52.198;20.908;2023-03-14T09:07:49;9.10;;;3.75;;
21162;SDS011;10739;52.198;20.908;2023-03-14T09:10:15;10.38;;;4.80;;
21162;SDS011;10739;52.198;20.908;2023-03-14T09:12:41;6.55;;;3.58;;
21162;SDS011;10739;52.198;20.908;2023-03-14T09:15:08;11.60;;;3.75;;
21162;SDS011;10739;52.198;20.908;2023-03-14T09:17:35;7.40;;;3.35;;
21162;SDS011;10739;52.198;20.908;2023-03-14T09:20:02;9.10;;;2.90;;
21162;SDS011;10739;52.198;20.908;2023-03-14T09:22:32;7.72;;;3.60;;
21162;SDS011;10739;52.198;20.908;2023-03-14T09:25:00;6.75;;;3.58;;
21162;SDS011;10739;52.198;20.908;2023-03-14T09:27:30;4.72;;;3.40;;
21162;SDS011;10739;52.198;20.908;2023-03-14T09:29:56;8.70;;;3.58;;
21162;SDS011;10739;52.198;20.908;2023-03-14T09:32:23;11.80;;;3.88;;
21162;SDS011;10739;52.198;20.908;2023-03-14T09:34:49;8.70;;;3.50;;
21162;SDS011;10739;52.198;20.908;2023-03-14T09:37:15;5.47;;;2.80;;
21162;SDS011;10739;52.198;20.908;2023-03-14T09:39:46;6.30;;;3.15;;
21162;SDS011;10739;52.198;20.908;2023-03-14T09:42:13;5.28;;;3.55;;
21162;SDS011;10739;52.198;20.908;2023-03-14T09:44:53;6.05;;;3.65;;
21162;SDS011;10739;52.198;20.908;2023-03-14T09:47:29;9.15;;;3.25;;
21162;SDS011;10739;52.198;20.908;2023-03-14T09:49:56;5.22;;;3.20;;
21162;SDS011;10739;52.198;20.908;2023-03-14T09:52:32;7.60;;;3.58;;
21162;SDS011;10739;52.198;20.908;2023-03-14T09:55:05;6.38;;;3.03;;
21162;SDS011;10739;52.198;20.908;2023-03-14T09:57:40;8.38;;;3.72;;
21162;SDS011;10739;52.198;20.908;2023-03-14T10:00:17;8.95;;;3.88;;
21162;SDS011;10739;52.198;20.908;2023-03-14T10:05:51;7.88;;;3.33;;
21162;SDS011;10739;52.198;20.908;2023-03-14T10:08:18;5.22;;;3.13;;
21162;SDS011;10739;52.198;20.908;2023-03-14T10:10:44;10.20;;;3.53;;
21162;SDS011;10739;52.198;20.908;2023-03-14T10:13:21;4.38;;;3.05;;
21162;SDS011;10739;52.198;20.908;2023-03-14T10:15:55;5.83;;;3.50;;
21162;SDS011;10739;52.198;20.908;2023-03-14T10:18:31;9.82;;;3.20;;
21162;SDS011;10739;52.198;20.908;2023-03-14T10:21:02;6.65;;;3.17;;
21162;SDS011;10739;52.198;20.908;2023-03-14T10:23:53;5.75;;;2.92;;
21162;SDS011;10739;52.198;20.908;2023-03-14T10:26:28;11.13;;;2.75;;
21162;SDS011;10739;52.198;20.908;2023-03-14T10:29:11;6.80;;;3.33;;
21162;SDS011;10739;52.198;20.908;2023-03-14T10:34:20;13.10;;;3.63;;
21162;SDS011;10739;52.198;20.908;2023-03-14T10:37:07;5.55;;;3.75;;
21162;SDS011;10739;52.198;20.908;2023-03-14T10:39:50;6.20;;;3.25;;
21162;SDS011;10739;52.198;20.908;2023-03-14T10:42:34;6.53;;;3.50;;
21162;SDS011;10739;52.198;20.908;2023-03-14T10:45:25;8.70;;;3.10;;
21162;SDS011;10739;52.198;20.908;2023-03-14T10:48:05;7.18;;;3.05;;
21162;SDS011;10739;52.198;20.908;2023-03-14T10:53:45;5.25;;;3.05;;
21162;SDS011;10739;52.198;20.908;2023-03-14T10:56:12;4.03;;;2.83;;
21162;SDS011;10739;52.198;20.908;2023-03-14T10:58:42;3.70;;;2.78;;
21162;SDS011;10739;52.198;20.908;2023-03-14T11:15:20;9.80;;;3.03;;
21162;SDS011;10739;52.198;20.908;2023-03-14T11:24:04;8.05;;;3.40;;
21162;SDS011;10739;52.198;20.908;2023-03-14T11:32:03;5.70;;;3.40;;
21162;SDS011;10739;52.198;20.908;2023-03-14T11:34:51;7.78;;;3.95;;
21162;SDS011;10739;52.198;20.908;2023-03-14T11:37:30;6.97;;;3.92;;
21162;SDS011;10739;52.198;20.908;2023-03-14T11:42:46;8.90;;;3.67;;
21162;SDS011;10739;52.198;20.908;2023-03-14T11:45:35;12.00;;;4.65;;
21162;SDS011;10739;52.198;20.908;2023-03-14T11:50:55;7.95;;;3.60;;
21162;SDS011;10739;52.198;20.908;2023-03-14T11:56:25;15.52;;;3.85;;
21162;SDS011;10739;52.198;20.908;2023-03-14T11:59:17;9.73;;;3.88;;
21162;SDS011;10739;52.198;20.908;2023-03-14T12:02:14;7.40;;;3.55;;
21162;SDS011;10739;52.198;20.908;2023-03-14T12:05:28;4.82;;;2.97;;
21162;SDS011;10739;52.198;20.908;2023-03-14T12:08:33;7.63;;;3.95;;
21162;SDS011;10739;52.198;20.908;2023-03-14T12:19:38;12.18;;;4.10;;
21162;SDS011;10739;52.198;20.908;2023-03-14T12:24:53;9.85;;;4.72;;
21162;SDS011;10739;52.198;20.908;2023-03-14T12:28:16;10.25;;;4.55;;
21162;SDS011;10739;52.198;20.908;2023-03-14T12:30:25;11.48;;;4.68;;
21162;SDS011;10739;52.198;20.908;2023-03-14T12:33:42;11.05;;;5.13;;
21162;SDS011;10739;52.198;20.908;2023-03-14T12:43:50;9.68;;;4.97;;
21162;SDS011;10739;52.198;20.908;2023-03-14T12:48:44;11.50;;;5.10;;
21162;SDS011;10739;52.198;20.908;2023-03-14T12:51:16;10.60;;;5.47;;
21162;SDS011;10739;52.198;20.908;2023-03-14T13:00:00;10.57;;;5.00;;
21162;SDS011;10739;52.198;20.908;2023-03-14T13:02:42;14.32;;;5.57;;
21162;SDS011;10739;52.198;20.908;2023-03-14T13:05:20;12.15;;;5.03;;
21162;SDS011;10739;52.198;20.908;2023-03-14T13:10:23;9.25;;;4.80;;
21162;SDS011;10739;52.198;20.908;2023-03-14T13:12:56;9.30;;;4.97;;
21162;SDS011;10739;52.198;20.908;2023-03-14T13:15:44;10.80;;;5.10;;
21162;SDS011;10739;52.198;20.908;2023-03-14T13:20:59;14.00;;;5.05;;
21162;SDS011;10739;52.198;20.908;2023-03-14T13:23:33;11.40;;;5.20;;
21162;SDS011;10739;52.198;20.908;2023-03-14T13:26:12;8.23;;;5.20;;
21162;SDS011;10739;52.198;20.908;2023-03-14T13:28:42;11.93;;;5.38;;
21162;SDS011;10739;52.198;20.908;2023-03-14T13:31:23;19.30;;;6.35;;
21162;SDS011;10739;52.198;20.908;2023-03-14T13:33:58;12.98;;;5.20;;
21162;SDS011;10739;52.198;20.908;2023-03-14T13:36:31;10.45;;;5.38;;
21162;SDS011;10739;52.198;20.908;2023-03-14T13:39:02;9.85;;;5.15;;
21162;SDS011;10739;52.198;20.908;2023-03-14T13:41:37;11.23;;;5.47;;
21162;SDS011;10739;52.198;20.908;2023-03-14T13:44:05;11.50;;;5.80;;
21162;SDS011;10739;52.198;20.908;2023-03-14T13:46:39;16.40;;;6.40;;
21162;SDS011;10739;52.198;20.908;2023-03-14T13:49:07;11.73;;;6.47;;
21162;SDS011;10739;52.198;20.908;2023-03-14T13:51:42;13.95;;;7.13;;
21162;SDS011;10739;52.198;20.908;2023-03-14T13:54:19;17.33;;;7.32;;
21162;SDS011;10739;52.198;20.908;2023-03-14T13:56:47;17.77;;;7.68;;
21162;SDS011;10739;52.198;20.908;2023-03-14T13:59:32;9.10;;;6.53;;
21162;SDS011;10739;52.198;20.908;2023-03-14T14:02:01;14.57;;;7.35;;
21162;SDS011;10739;52.198;20.908;2023-03-14T14:04:39;8.88;;;6.57;;
21162;SDS011;10739;52.198;20.908;2023-03-14T14:07:06;12.52;;;6.40;;
21162;SDS011;10739;52.198;20.908;2023-03-14T14:09:39;11.10;;;6.70;;
21162;SDS011;10739;52.198;20.908;2023-03-14T14:12:13;11.38;;;6.30;;
21162;SDS011;10739;52.198;20.908;2023-03-14T14:17:23;12.40;;;6.40;;
21162;SDS011;10739;52.198;20.908;2023-03-14T14:20:01;11.13;;;5.90;;
21162;SDS011;10739;52.198;20.908;2023-03-14T14:22:32;11.48;;;6.00;;
21162;SDS011;10739;52.198;20.908;2023-03-14T14:24:59;9.80;;;5.63;;
21162;SDS011;10739;52.198;20.908;2023-03-14T14:27:33;7.22;;;5.63;;
21162;SDS011;10739;52.198;20.908;2023-03-14T14:32:52;9.20;;;5.05;;
21162;SDS011;10739;52.198;20.908;2023-03-14T14:35:37;12.48;;;5.88;;
21162;SDS011;10739;52.198;20.908;2023-03-14T14:38:08;14.05;;;6.22;;
21162;SDS011;10739;52.198;20.908;2023-03-14T14:40:45;11.13;;;5.82;;
21162;SDS011;10739;52.198;20.908;2023-03-14T14:43:20;13.05;;;5.93;;
21162;SDS011;10739;52.198;20.908;2023-03-14T14:45:52;10.77;;;5.47;;
21162;SDS011;10739;52.198;20.908;2023-03-14T14:48:25;9.90;;;5.72;;
21162;SDS011;10739;52.198;20.908;2023-03-14T14:56:13;9.60;;;6.13;;
21162;SDS011;10739;52.198;20.908;2023-03-14T14:58:44;13.63;;;6.32;;
21162;SDS011;10739;52.198;20.908;2023-03-14T15:06:21;10.85;;;6.10;;
21162;SDS011;10739;52.198;20.908;2023-03-14T15:08:53;13.20;;;6.75;;
21162;SDS011;10739;52.198;20.908;2023-03-14T15:11:21;9.63;;;5.80;;
21162;SDS011;10739;52.198;20.908;2023-03-14T15:13:53;10.18;;;6.43;;
21162;SDS011;10739;52.198;20.908;2023-03-14T15:16:20;11.02;;;6.05;;
21162;SDS011;10739;52.198;20.908;2023-03-14T15:18:53;10.60;;;5.63;;
21162;SDS011;10739;52.198;20.908;2023-03-14T15:21:26;9.88;;;5.68;;
21162;SDS011;10739;52.198;20.908;2023-03-14T15:23:54;10.23;;;6.40;;
21162;SDS011;10739;52.198;20.908;2023-03-14T15:26:22;8.63;;;5.82;;
21162;SDS011;10739;52.198;20.908;2023-03-14T15:28:51;10.20;;;5.75;;
21162;SDS011;10739;52.198;20.908;2023-03-14T15:31:18;11.52;;;6.63;;
21162;SDS011;10739;52.198;20.908;2023-03-14T15:33:46;22.58;;;6.07;;
21162;SDS011;10739;52.198;20.908;2023-03-14T15:36:27;9.88;;;6.05;;
21162;SDS011;10739;52.198;20.908;2023-03-14T15:38:56;12.07;;;6.17;;
21162;SDS011;10739;52.198;20.908;2023-03-14T15:41:24;12.88;;;6.07;;
21162;SDS011;10739;52.198;20.908;2023-03-14T15:43:53;10.13;;;7.03;;
21162;SDS011;10739;52.198;20.908;2023-03-14T15:46:20;11.10;;;6.90;;
21162;SDS011;10739;52.198;20.908;2023-03-14T15:48:48;14.68;;;7.30;;
21162;SDS011;10739;52.198;20.908;2023-03-14T15:51:17;11.80;;;6.90;;
21162;SDS011;10739;52.198;20.908;2023-03-14T15:53:44;13.48;;;6.88;;
21162;SDS011;10739;52.198;20.908;2023-03-14T15:56:12;11.52;;;7.30;;
21162;SDS011;10739;52.198;20.908;2023-03-14T15:58:41;11.95;;;7.07;;
21162;SDS011;10739;52.198;20.908;2023-03-14T16:01:12;11.35;;;6.63;;
21162;SDS011;10739;52.198;20.908;2023-03-14T16:03:41;20.60;;;9.45;;
21162;SDS011;10739;52.198;20.908;2023-03-14T16:06:09;20.00;;;9.40;;
21162;SDS011;10739;52.198;20.908;2023-03-14T16:08:35;13.38;;;8.73;;
21162;SDS011;10739;52.198;20.908;2023-03-14T16:11:02;17.73;;;9.07;;
21162;SDS011;10739;52.198;20.908;2023-03-14T16:13:28;15.90;;;8.90;;
21162;SDS011;10739;52.198;20.908;2023-03-14T16:18:24;17.33;;;8.40;;
21162;SDS011;10739;52.198;20.908;2023-03-14T16:20:57;15.98;;;7.80;;
21162;SDS011;10739;52.198;20.908;2023-03-14T16:23:27;15.85;;;8.07;;
21162;SDS011;10739;52.198;20.908;2023-03-14T16:25:54;17.23;;;8.90;;
21162;SDS011;10739;52.198;20.908;2023-03-14T16:28:22;18.13;;;9.15;;
21162;SDS011;10739;52.198;20.908;2023-03-14T16:30:49;13.82;;;8.38;;